sensor_id;sensor_type;location;lat;lon;timestamp;temperature;humidity
52675;DHT22;38569;52.722;6.440;2022-12-29T00:01:54;10.20;99.90
52675;DHT22;38569;52.722;6.440;2022-12-29T00:04:20;10.10;99.90
52675;DHT22;38569;52.722;6.440;2022-12-29T00:06:46;10.10;99.90
52675;DHT22;38569;52.722;6.440;2022-12-29T00:09:12;10.10;99.90
52675;DHT22;38569;52.722;6.440;2022-12-29T00:11:38;10.10;99.90
52675;DHT22;38569;52.722;6.440;2022-12-29T00:14:04;10.10;99.90
52675;DHT22;38569;52.722;6.440;2022-12-29T00:16:49;10.10;99.90
52675;DHT22;38569;52.722;6.440;2022-12-29T00:19:14;10.20;99.90
52675;DHT22;38569;52.722;6.440;2022-12-29T00:21:58;10.10;99.90
52675;DHT22;38569;52.722;6.440;2022-12-29T00:24:43;10.10;99.90
52675;DHT22;38569;52.722;6.440;2022-12-29T00:27:28;10.10;99.90
52675;DHT22;38569;52.722;6.440;2022-12-29T00:30:18;10.10;99.90
52675;DHT22;38569;52.722;6.440;2022-12-29T00:33:16;10.20;99.90
52675;DHT22;38569;52.722;6.440;2022-12-29T00:36:46;10.20;99.90
52675;DHT22;38569;52.722;6.440;2022-12-29T00:38:57;10.20;99.90
52675;DHT22;38569;52.722;6.440;2022-12-29T00:41:42;10.20;99.90
52675;DHT22;38569;52.722;6.440;2022-12-29T00:44:27;10.20;99.90
52675;DHT22;38569;52.722;6.440;2022-12-29T00:46:52;10.20;99.90
52675;DHT22;38569;52.722;6.440;2022-12-29T00:49:18;10.30;99.90
52675;DHT22;38569;52.722;6.440;2022-12-29T00:54:27;10.20;99.90
52675;DHT22;38569;52.722;6.440;2022-12-29T00:56:53;10.20;99.90
52675;DHT22;38569;52.722;6.440;2022-12-29T00:59:19;10.20;99.90
52675;DHT22;38569;52.722;6.440;2022-12-29T01:01:46;10.30;99.90
52675;DHT22;38569;52.722;6.440;2022-12-29T01:04:12;10.30;99.90
52675;DHT22;38569;52.722;6.440;2022-12-29T01:06:39;10.30;99.90
52675;DHT22;38569;52.722;6.440;2022-12-29T01:09:06;10.30;99.90
52675;DHT22;38569;52.722;6.440;2022-12-29T01:11:50;10.40;99.90
52675;DHT22;38569;52.722;6.440;2022-12-29T01:14:17;10.50;99.90
52675;DHT22;38569;52.722;6.440;2022-12-29T01:16:43;10.50;99.90
52675;DHT22;38569;52.722;6.440;2022-12-29T01:19:09;10.50;99.90
52675;DHT22;38569;52.722;6.440;2022-12-29T01:21:35;10.50;99.90
52675;DHT22;38569;52.722;6.440;2022-12-29T01:24:01;10.60;99.90
52675;DHT22;38569;52.722;6.440;2022-12-29T01:26:27;10.60;99.90
52675;DHT22;38569;52.722;6.440;2022-12-29T01:28:52;10.60;99.90
52675;DHT22;38569;52.722;6.440;2022-12-29T01:31:18;10.60;99.90
52675;DHT22;38569;52.722;6.440;2022-12-29T01:33:44;10.60;99.90
52675;DHT22;38569;52.722;6.440;2022-12-29T01:36:13;10.70;99.90
52675;DHT22;38569;52.722;6.440;2022-12-29T01:38:40;10.70;99.90
52675;DHT22;38569;52.722;6.440;2022-12-29T01:41:07;10.70;99.90
52675;DHT22;38569;52.722;6.440;2022-12-29T01:43:42;10.70;99.90
52675;DHT22;38569;52.722;6.440;2022-12-29T01:46:22;10.80;99.90
52675;DHT22;38569;52.722;6.440;2022-12-29T01:51:50;10.80;99.90
52675;DHT22;38569;52.722;6.440;2022-12-29T01:54:36;10.80;99.90
52675;DHT22;38569;52.722;6.440;2022-12-29T01:57:06;10.80;99.90
52675;DHT22;38569;52.722;6.440;2022-12-29T01:59:37;10.80;99.90
52675;DHT22;38569;52.722;6.440;2022-12-29T02:02:04;10.80;99.90
52675;DHT22;38569;52.722;6.440;2022-12-29T02:04:32;10.80;99.90
52675;DHT22;38569;52.722;6.440;2022-12-29T02:07:02;10.80;99.90
52675;DHT22;38569;52.722;6.440;2022-12-29T02:09:29;10.80;99.90
52675;DHT22;38569;52.722;6.440;2022-12-29T02:11:56;10.80;99.90
52675;DHT22;38569;52.722;6.440;2022-12-29T02:14:23;10.80;99.90
52675;DHT22;38569;52.722;6.440;2022-12-29T02:36:15;10.20;99.90
52675;DHT22;38569;52.722;6.440;2022-12-29T02:38:56;10.20;99.90
52675;DHT22;38569;52.722;6.440;2022-12-29T02:41:32;10.20;99.90
52675;DHT22;38569;52.722;6.440;2022-12-29T02:44:27;10.20;99.90
52675;DHT22;38569;52.722;6.440;2022-12-29T02:47:09;10.20;99.90
52675;DHT22;38569;52.722;6.440;2022-12-29T02:49:48;10.20;99.90
52675;DHT22;38569;52.722;6.440;2022-12-29T02:52:22;10.20;99.90
52675;DHT22;38569;52.722;6.440;2022-12-29T02:54:53;10.20;99.90
52675;DHT22;38569;52.722;6.440;2022-12-29T03:00:02;10.10;99.90
52675;DHT22;38569;52.722;6.440;2022-12-29T03:02:50;10.20;99.90
52675;DHT22;38569;52.722;6.440;2022-12-29T03:11:06;10.00;99.90
52675;DHT22;38569;52.722;6.440;2022-12-29T03:13:59;10.10;99.90
52675;DHT22;38569;52.722;6.440;2022-12-29T03:16:55;10.10;99.90
52675;DHT22;38569;52.722;6.440;2022-12-29T03:19:35;10.10;99.90
52675;DHT22;38569;52.722;6.440;2022-12-29T03:22:04;10.00;99.90
52675;DHT22;38569;52.722;6.440;2022-12-29T03:24:52;10.00;99.90
52675;DHT22;38569;52.722;6.440;2022-12-29T03:27:32;10.00;99.90
52675;DHT22;38569;52.722;6.440;2022-12-29T03:30:03;10.00;99.90
52675;DHT22;38569;52.722;6.440;2022-12-29T03:32:33;10.00;99.90
52675;DHT22;38569;52.722;6.440;2022-12-29T03:35:01;10.00;99.90
52675;DHT22;38569;52.722;6.440;2022-12-29T03:37:31;10.10;99.90
52675;DHT22;38569;52.722;6.440;2022-12-29T03:40:00;10.10;99.90
52675;DHT22;38569;52.722;6.440;2022-12-29T03:42:28;10.10;99.90
52675;DHT22;38569;52.722;6.440;2022-12-29T03:44:56;10.10;99.90
52675;DHT22;38569;52.722;6.440;2022-12-29T03:47:23;10.10;99.90
52675;DHT22;38569;52.722;6.440;2022-12-29T03:49:50;10.20;99.90
52675;DHT22;38569;52.722;6.440;2022-12-29T03:52:16;10.20;99.90
52675;DHT22;38569;52.722;6.440;2022-12-29T03:54:42;10.20;99.90
52675;DHT22;38569;52.722;6.440;2022-12-29T03:57:09;10.20;99.90
52675;DHT22;38569;52.722;6.440;2022-12-29T03:59:35;10.20;99.90
52675;DHT22;38569;52.722;6.440;2022-12-29T04:02:01;10.20;99.90
52675;DHT22;38569;52.722;6.440;2022-12-29T04:04:27;10.10;99.90
52675;DHT22;38569;52.722;6.440;2022-12-29T04:06:52;10.00;99.90
52675;DHT22;38569;52.722;6.440;2022-12-29T04:09:18;10.00;99.90
52675;DHT22;38569;52.722;6.440;2022-12-29T04:11:44;9.90;99.90
52675;DHT22;38569;52.722;6.440;2022-12-29T04:14:09;9.90;99.90
52675;DHT22;38569;52.722;6.440;2022-12-29T04:16:35;9.90;99.90
52675;DHT22;38569;52.722;6.440;2022-12-29T04:19:02;9.90;99.90
52675;DHT22;38569;52.722;6.440;2022-12-29T04:21:28;9.80;99.90
52675;DHT22;38569;52.722;6.440;2022-12-29T04:23:53;9.80;99.90
52675;DHT22;38569;52.722;6.440;2022-12-29T04:26:19;9.70;99.90
52675;DHT22;38569;52.722;6.440;2022-12-29T04:28:45;9.80;99.90
52675;DHT22;38569;52.722;6.440;2022-12-29T04:31:11;9.70;99.90
52675;DHT22;38569;52.722;6.440;2022-12-29T04:33:36;9.70;99.90
52675;DHT22;38569;52.722;6.440;2022-12-29T04:36:02;9.70;99.90
52675;DHT22;38569;52.722;6.440;2022-12-29T04:38:28;9.60;99.90
52675;DHT22;38569;52.722;6.440;2022-12-29T04:40:54;9.60;99.90
52675;DHT22;38569;52.722;6.440;2022-12-29T04:43:20;9.60;99.90
52675;DHT22;38569;52.722;6.440;2022-12-29T04:45:47;9.70;99.90
52675;DHT22;38569;52.722;6.440;2022-12-29T04:48:13;9.70;99.90
52675;DHT22;38569;52.722;6.440;2022-12-29T04:50:40;9.70;99.90
52675;DHT22;38569;52.722;6.440;2022-12-29T04:53:06;9.70;99.90
52675;DHT22;38569;52.722;6.440;2022-12-29T04:55:32;9.80;99.90
52675;DHT22;38569;52.722;6.440;2022-12-29T04:57:58;9.90;99.90
52675;DHT22;38569;52.722;6.440;2022-12-29T05:00:24;9.80;99.90
52675;DHT22;38569;52.722;6.440;2022-12-29T05:02:49;9.90;99.90
52675;DHT22;38569;52.722;6.440;2022-12-29T05:05:16;9.90;99.90
52675;DHT22;38569;52.722;6.440;2022-12-29T05:07:41;9.90;99.90
52675;DHT22;38569;52.722;6.440;2022-12-29T05:10:07;9.90;99.90
52675;DHT22;38569;52.722;6.440;2022-12-29T05:12:34;9.90;99.90
52675;DHT22;38569;52.722;6.440;2022-12-29T05:15:00;10.00;99.90
52675;DHT22;38569;52.722;6.440;2022-12-29T05:17:28;9.90;99.90
52675;DHT22;38569;52.722;6.440;2022-12-29T05:19:54;10.00;99.90
52675;DHT22;38569;52.722;6.440;2022-12-29T05:22:20;10.00;99.90
52675;DHT22;38569;52.722;6.440;2022-12-29T05:24:46;10.00;99.90
52675;DHT22;38569;52.722;6.440;2022-12-29T05:27:11;10.00;99.90
52675;DHT22;38569;52.722;6.440;2022-12-29T05:29:37;10.00;99.90
52675;DHT22;38569;52.722;6.440;2022-12-29T05:32:03;10.10;99.90
52675;DHT22;38569;52.722;6.440;2022-12-29T05:34:29;10.10;99.90
52675;DHT22;38569;52.722;6.440;2022-12-29T05:36:54;10.00;99.90
52675;DHT22;38569;52.722;6.440;2022-12-29T05:39:20;10.00;99.90
52675;DHT22;38569;52.722;6.440;2022-12-29T05:41:46;10.00;99.90
52675;DHT22;38569;52.722;6.440;2022-12-29T05:44:12;10.00;99.90
52675;DHT22;38569;52.722;6.440;2022-12-29T05:46:38;10.00;99.90
52675;DHT22;38569;52.722;6.440;2022-12-29T05:49:04;10.00;99.90
52675;DHT22;38569;52.722;6.440;2022-12-29T05:51:29;10.00;99.90
52675;DHT22;38569;52.722;6.440;2022-12-29T05:53:55;10.00;99.90
52675;DHT22;38569;52.722;6.440;2022-12-29T05:56:21;10.00;99.90
52675;DHT22;38569;52.722;6.440;2022-12-29T05:58:47;10.00;99.90
52675;DHT22;38569;52.722;6.440;2022-12-29T06:01:13;10.00;99.90
52675;DHT22;38569;52.722;6.440;2022-12-29T06:03:38;9.90;99.90
52675;DHT22;38569;52.722;6.440;2022-12-29T06:06:04;10.00;99.90
52675;DHT22;38569;52.722;6.440;2022-12-29T06:08:30;9.90;99.90
52675;DHT22;38569;52.722;6.440;2022-12-29T06:10:56;9.90;99.90
52675;DHT22;38569;52.722;6.440;2022-12-29T06:13:21;9.90;99.90
52675;DHT22;38569;52.722;6.440;2022-12-29T06:15:51;9.80;99.90
52675;DHT22;38569;52.722;6.440;2022-12-29T06:18:17;9.80;99.90
52675;DHT22;38569;52.722;6.440;2022-12-29T06:20:42;9.80;99.90
52675;DHT22;38569;52.722;6.440;2022-12-29T06:23:08;9.80;99.90
52675;DHT22;38569;52.722;6.440;2022-12-29T06:25:34;9.90;99.90
52675;DHT22;38569;52.722;6.440;2022-12-29T06:28:02;9.90;99.90
52675;DHT22;38569;52.722;6.440;2022-12-29T06:30:28;9.90;99.90
52675;DHT22;38569;52.722;6.440;2022-12-29T06:32:53;9.90;99.90
52675;DHT22;38569;52.722;6.440;2022-12-29T06:35:20;9.90;99.90
52675;DHT22;38569;52.722;6.440;2022-12-29T06:37:48;9.90;99.90
52675;DHT22;38569;52.722;6.440;2022-12-29T06:40:14;9.90;99.90
52675;DHT22;38569;52.722;6.440;2022-12-29T06:42:40;9.90;99.90
52675;DHT22;38569;52.722;6.440;2022-12-29T06:45:06;9.90;99.90
52675;DHT22;38569;52.722;6.440;2022-12-29T06:47:33;9.90;99.90
52675;DHT22;38569;52.722;6.440;2022-12-29T06:49:59;9.90;99.90
52675;DHT22;38569;52.722;6.440;2022-12-29T06:52:25;9.90;99.90
52675;DHT22;38569;52.722;6.440;2022-12-29T06:54:51;9.90;99.90
52675;DHT22;38569;52.722;6.440;2022-12-29T06:57:17;9.80;99.90
52675;DHT22;38569;52.722;6.440;2022-12-29T06:59:42;9.90;99.90
52675;DHT22;38569;52.722;6.440;2022-12-29T07:02:10;9.80;99.90
52675;DHT22;38569;52.722;6.440;2022-12-29T07:04:36;9.90;99.90
52675;DHT22;38569;52.722;6.440;2022-12-29T07:07:02;9.90;99.90
52675;DHT22;38569;52.722;6.440;2022-12-29T07:09:27;9.90;99.90
52675;DHT22;38569;52.722;6.440;2022-12-29T07:11:53;9.90;99.90
52675;DHT22;38569;52.722;6.440;2022-12-29T07:14:19;9.90;99.90
52675;DHT22;38569;52.722;6.440;2022-12-29T07:16:44;9.80;99.90
52675;DHT22;38569;52.722;6.440;2022-12-29T07:19:10;9.80;99.90
52675;DHT22;38569;52.722;6.440;2022-12-29T07:21:36;9.80;99.90
52675;DHT22;38569;52.722;6.440;2022-12-29T07:24:01;9.80;99.90
52675;DHT22;38569;52.722;6.440;2022-12-29T07:26:27;9.70;99.90
52675;DHT22;38569;52.722;6.440;2022-12-29T07:28:53;9.70;99.90
52675;DHT22;38569;52.722;6.440;2022-12-29T07:31:22;9.70;99.90
52675;DHT22;38569;52.722;6.440;2022-12-29T07:33:48;9.70;99.90
52675;DHT22;38569;52.722;6.440;2022-12-29T07:36:14;9.70;99.90
52675;DHT22;38569;52.722;6.440;2022-12-29T07:38:41;9.80;99.90
52675;DHT22;38569;52.722;6.440;2022-12-29T07:41:07;9.80;99.90
52675;DHT22;38569;52.722;6.440;2022-12-29T07:43:32;9.80;99.90
52675;DHT22;38569;52.722;6.440;2022-12-29T07:45:58;9.80;99.90
52675;DHT22;38569;52.722;6.440;2022-12-29T07:48:24;9.70;99.90
52675;DHT22;38569;52.722;6.440;2022-12-29T07:50:50;9.80;99.90
52675;DHT22;38569;52.722;6.440;2022-12-29T07:53:16;9.70;99.90
52675;DHT22;38569;52.722;6.440;2022-12-29T07:55:41;9.70;99.90
52675;DHT22;38569;52.722;6.440;2022-12-29T07:58:07;9.70;99.90
52675;DHT22;38569;52.722;6.440;2022-12-29T08:00:33;9.70;99.90
52675;DHT22;38569;52.722;6.440;2022-12-29T08:02:59;9.70;99.90
52675;DHT22;38569;52.722;6.440;2022-12-29T08:05:24;9.70;99.90
52675;DHT22;38569;52.722;6.440;2022-12-29T08:07:50;9.70;99.90
52675;DHT22;38569;52.722;6.440;2022-12-29T08:10:16;9.70;99.90
52675;DHT22;38569;52.722;6.440;2022-12-29T08:12:43;9.70;99.90
52675;DHT22;38569;52.722;6.440;2022-12-29T08:15:10;9.60;99.90
52675;DHT22;38569;52.722;6.440;2022-12-29T08:17:36;9.60;99.90
52675;DHT22;38569;52.722;6.440;2022-12-29T08:20:03;9.70;99.90
52675;DHT22;38569;52.722;6.440;2022-12-29T08:22:29;9.60;99.90
52675;DHT22;38569;52.722;6.440;2022-12-29T08:24:54;9.70;99.90
52675;DHT22;38569;52.722;6.440;2022-12-29T08:27:20;9.70;99.90
52675;DHT22;38569;52.722;6.440;2022-12-29T08:29:46;9.70;99.90
52675;DHT22;38569;52.722;6.440;2022-12-29T08:32:12;9.70;99.90
52675;DHT22;38569;52.722;6.440;2022-12-29T08:34:38;9.70;99.90
52675;DHT22;38569;52.722;6.440;2022-12-29T08:37:04;9.70;99.90
52675;DHT22;38569;52.722;6.440;2022-12-29T08:39:29;9.80;99.90
52675;DHT22;38569;52.722;6.440;2022-12-29T08:41:55;9.80;99.90
52675;DHT22;38569;52.722;6.440;2022-12-29T08:44:21;9.80;99.90
52675;DHT22;38569;52.722;6.440;2022-12-29T08:46:47;9.80;99.90
52675;DHT22;38569;52.722;6.440;2022-12-29T08:49:12;9.80;99.90
52675;DHT22;38569;52.722;6.440;2022-12-29T08:51:38;9.80;99.90
52675;DHT22;38569;52.722;6.440;2022-12-29T08:54:04;9.80;99.90
52675;DHT22;38569;52.722;6.440;2022-12-29T08:56:30;9.90;99.90
52675;DHT22;38569;52.722;6.440;2022-12-29T08:58:56;9.80;99.90
52675;DHT22;38569;52.722;6.440;2022-12-29T09:01:22;9.80;99.90
52675;DHT22;38569;52.722;6.440;2022-12-29T09:03:48;9.80;99.90
52675;DHT22;38569;52.722;6.440;2022-12-29T09:06:15;9.90;99.90
52675;DHT22;38569;52.722;6.440;2022-12-29T09:08:42;9.80;99.90
52675;DHT22;38569;52.722;6.440;2022-12-29T09:11:13;9.70;99.90
52675;DHT22;38569;52.722;6.440;2022-12-29T09:13:39;9.50;99.90
52675;DHT22;38569;52.722;6.440;2022-12-29T09:16:05;9.40;99.90
52675;DHT22;38569;52.722;6.440;2022-12-29T09:18:31;9.40;99.90
52675;DHT22;38569;52.722;6.440;2022-12-29T09:21:01;9.40;99.90
52675;DHT22;38569;52.722;6.440;2022-12-29T09:23:28;9.50;99.90
52675;DHT22;38569;52.722;6.440;2022-12-29T09:25:53;9.50;99.90
52675;DHT22;38569;52.722;6.440;2022-12-29T09:28:20;9.50;99.90
52675;DHT22;38569;52.722;6.440;2022-12-29T09:30:46;9.40;99.90
52675;DHT22;38569;52.722;6.440;2022-12-29T09:33:12;9.40;99.90
52675;DHT22;38569;52.722;6.440;2022-12-29T09:35:42;9.30;99.90
52675;DHT22;38569;52.722;6.440;2022-12-29T09:38:08;9.30;99.90
52675;DHT22;38569;52.722;6.440;2022-12-29T09:40:34;9.40;99.90
52675;DHT22;38569;52.722;6.440;2022-12-29T09:45:44;9.50;99.90
52675;DHT22;38569;52.722;6.440;2022-12-29T09:48:17;9.40;99.90
52675;DHT22;38569;52.722;6.440;2022-12-29T09:50:47;9.40;99.90
52675;DHT22;38569;52.722;6.440;2022-12-29T09:53:25;9.40;99.90
52675;DHT22;38569;52.722;6.440;2022-12-29T09:55:54;9.40;99.90
52675;DHT22;38569;52.722;6.440;2022-12-29T10:01:14;9.30;99.90
52675;DHT22;38569;52.722;6.440;2022-12-29T10:03:48;9.40;99.90
52675;DHT22;38569;52.722;6.440;2022-12-29T10:06:39;9.40;99.90
52675;DHT22;38569;52.722;6.440;2022-12-29T10:09:34;9.30;99.90
52675;DHT22;38569;52.722;6.440;2022-12-29T10:25:41;9.20;99.90
52675;DHT22;38569;52.722;6.440;2022-12-29T10:28:39;9.10;99.90
52675;DHT22;38569;52.722;6.440;2022-12-29T10:31:12;9.20;99.90
52675;DHT22;38569;52.722;6.440;2022-12-29T10:33:41;9.20;99.90
52675;DHT22;38569;52.722;6.440;2022-12-29T10:39:32;9.30;99.90
52675;DHT22;38569;52.722;6.440;2022-12-29T10:42:13;9.40;99.90
52675;DHT22;38569;52.722;6.440;2022-12-29T10:44:41;9.50;99.90
52675;DHT22;38569;52.722;6.440;2022-12-29T10:47:15;9.50;99.90
52675;DHT22;38569;52.722;6.440;2022-12-29T10:49:42;9.60;99.90
52675;DHT22;38569;52.722;6.440;2022-12-29T10:52:11;9.70;99.90
52675;DHT22;38569;52.722;6.440;2022-12-29T10:55:41;9.80;99.90
52675;DHT22;38569;52.722;6.440;2022-12-29T10:57:39;9.80;99.90
52675;DHT22;38569;52.722;6.440;2022-12-29T11:00:15;9.70;99.90
52675;DHT22;38569;52.722;6.440;2022-12-29T11:05:57;9.50;99.90
52675;DHT22;38569;52.722;6.440;2022-12-29T11:08:35;9.40;99.90
52675;DHT22;38569;52.722;6.440;2022-12-29T11:11:09;9.40;99.90
52675;DHT22;38569;52.722;6.440;2022-12-29T11:13:48;9.30;99.90
52675;DHT22;38569;52.722;6.440;2022-12-29T11:16:14;9.20;99.90
52675;DHT22;38569;52.722;6.440;2022-12-29T11:18:40;9.30;99.90
52675;DHT22;38569;52.722;6.440;2022-12-29T11:21:40;9.30;99.90
52675;DHT22;38569;52.722;6.440;2022-12-29T11:26:50;9.40;99.90
52675;DHT22;38569;52.722;6.440;2022-12-29T11:29:29;9.40;99.90
52675;DHT22;38569;52.722;6.440;2022-12-29T11:32:17;9.30;99.90
52675;DHT22;38569;52.722;6.440;2022-12-29T11:34:43;9.20;99.90
52675;DHT22;38569;52.722;6.440;2022-12-29T11:37:21;9.10;99.90
52675;DHT22;38569;52.722;6.440;2022-12-29T11:42:36;9.30;99.90
52675;DHT22;38569;52.722;6.440;2022-12-29T11:47:33;9.40;99.90
52675;DHT22;38569;52.722;6.440;2022-12-29T11:50:02;9.40;99.90
52675;DHT22;38569;52.722;6.440;2022-12-29T11:52:33;9.40;99.90
52675;DHT22;38569;52.722;6.440;2022-12-29T11:55:03;9.50;99.90
52675;DHT22;38569;52.722;6.440;2022-12-29T11:57:32;9.60;99.90
52675;DHT22;38569;52.722;6.440;2022-12-29T12:00:02;9.70;99.90
52675;DHT22;38569;52.722;6.440;2022-12-29T12:02:36;9.60;99.90
52675;DHT22;38569;52.722;6.440;2022-12-29T12:05:22;9.70;99.90
52675;DHT22;38569;52.722;6.440;2022-12-29T12:08:11;9.70;99.90
52675;DHT22;38569;52.722;6.440;2022-12-29T12:11:06;10.00;99.90
52675;DHT22;38569;52.722;6.440;2022-12-29T12:13:41;10.00;99.90
52675;DHT22;38569;52.722;6.440;2022-12-29T12:16:16;9.80;99.90
52675;DHT22;38569;52.722;6.440;2022-12-29T12:18:53;9.70;99.90
52675;DHT22;38569;52.722;6.440;2022-12-29T12:21:40;9.50;99.90
52675;DHT22;38569;52.722;6.440;2022-12-29T12:24:20;9.40;99.90
52675;DHT22;38569;52.722;6.440;2022-12-29T12:27:10;9.00;99.90
52675;DHT22;38569;52.722;6.440;2022-12-29T12:30:02;8.70;99.90
52675;DHT22;38569;52.722;6.440;2022-12-29T12:32:55;8.40;99.90
52675;DHT22;38569;52.722;6.440;2022-12-29T12:38:10;9.10;99.90
52675;DHT22;38569;52.722;6.440;2022-12-29T12:40:48;9.30;99.90
52675;DHT22;38569;52.722;6.440;2022-12-29T12:51:33;9.20;99.90
52675;DHT22;38569;52.722;6.440;2022-12-29T12:57:00;9.20;99.90
52675;DHT22;38569;52.722;6.440;2022-12-29T12:59:36;9.30;99.90
52675;DHT22;38569;52.722;6.440;2022-12-29T13:02:21;9.30;99.90
52675;DHT22;38569;52.722;6.440;2022-12-29T13:11:28;9.00;99.90
52675;DHT22;38569;52.722;6.440;2022-12-29T13:14:20;8.90;99.90
52675;DHT22;38569;52.722;6.440;2022-12-29T13:17:05;8.90;99.90
52675;DHT22;38569;52.722;6.440;2022-12-29T13:22:30;9.00;99.90
52675;DHT22;38569;52.722;6.440;2022-12-29T13:25:34;9.00;99.90
52675;DHT22;38569;52.722;6.440;2022-12-29T13:31:05;8.80;99.90
52675;DHT22;38569;52.722;6.440;2022-12-29T13:33:59;8.80;99.90
52675;DHT22;38569;52.722;6.440;2022-12-29T13:36:32;8.80;99.90
52675;DHT22;38569;52.722;6.440;2022-12-29T13:41:51;8.70;99.90
52675;DHT22;38569;52.722;6.440;2022-12-29T13:44:22;8.70;99.90
52675;DHT22;38569;52.722;6.440;2022-12-29T13:46:49;8.70;99.90
52675;DHT22;38569;52.722;6.440;2022-12-29T13:49:20;8.70;99.90
52675;DHT22;38569;52.722;6.440;2022-12-29T13:51:56;8.60;99.90
52675;DHT22;38569;52.722;6.440;2022-12-29T13:54:28;8.60;99.90
52675;DHT22;38569;52.722;6.440;2022-12-29T13:57:15;8.60;99.90
52675;DHT22;38569;52.722;6.440;2022-12-29T14:02:36;8.60;99.90
52675;DHT22;38569;52.722;6.440;2022-12-29T14:07:57;8.50;99.90
52675;DHT22;38569;52.722;6.440;2022-12-29T14:10:38;8.40;99.90
52675;DHT22;38569;52.722;6.440;2022-12-29T14:15:41;8.40;99.90
52675;DHT22;38569;52.722;6.440;2022-12-29T14:18:19;8.50;99.90
52675;DHT22;38569;52.722;6.440;2022-12-29T14:21:17;8.50;99.90
52675;DHT22;38569;52.722;6.440;2022-12-29T14:23:38;8.50;99.90
52675;DHT22;38569;52.722;6.440;2022-12-29T14:28:39;8.50;99.90
52675;DHT22;38569;52.722;6.440;2022-12-29T14:33:41;8.60;99.90
52675;DHT22;38569;52.722;6.440;2022-12-29T14:36:34;8.60;99.90
52675;DHT22;38569;52.722;6.440;2022-12-29T14:39:00;8.60;99.90
52675;DHT22;38569;52.722;6.440;2022-12-29T14:41:35;8.60;99.90
52675;DHT22;38569;52.722;6.440;2022-12-29T14:44:20;8.50;99.90
52675;DHT22;38569;52.722;6.440;2022-12-29T14:46:54;8.50;99.90
52675;DHT22;38569;52.722;6.440;2022-12-29T14:49:27;8.50;99.90
52675;DHT22;38569;52.722;6.440;2022-12-29T14:57:06;8.40;99.90
52675;DHT22;38569;52.722;6.440;2022-12-29T14:59:33;8.40;99.90
52675;DHT22;38569;52.722;6.440;2022-12-29T15:02:03;8.40;99.90
52675;DHT22;38569;52.722;6.440;2022-12-29T15:04:35;8.40;99.90
52675;DHT22;38569;52.722;6.440;2022-12-29T15:07:02;8.40;99.90
52675;DHT22;38569;52.722;6.440;2022-12-29T15:09:39;8.40;99.90
52675;DHT22;38569;52.722;6.440;2022-12-29T15:12:23;8.40;99.90
52675;DHT22;38569;52.722;6.440;2022-12-29T15:14:58;8.40;99.90
52675;DHT22;38569;52.722;6.440;2022-12-29T15:17:30;8.40;99.90
52675;DHT22;38569;52.722;6.440;2022-12-29T15:19:57;8.40;99.90
52675;DHT22;38569;52.722;6.440;2022-12-29T15:22:24;8.40;99.90
52675;DHT22;38569;52.722;6.440;2022-12-29T15:24:52;8.40;99.90
52675;DHT22;38569;52.722;6.440;2022-12-29T15:27:23;8.30;99.90
52675;DHT22;38569;52.722;6.440;2022-12-29T15:30:00;8.30;99.90
52675;DHT22;38569;52.722;6.440;2022-12-29T15:32:44;8.30;99.90
52675;DHT22;38569;52.722;6.440;2022-12-29T15:37:47;8.30;99.90
52675;DHT22;38569;52.722;6.440;2022-12-29T15:40:32;8.20;99.90
52675;DHT22;38569;52.722;6.440;2022-12-29T15:45:43;8.20;99.90
52675;DHT22;38569;52.722;6.440;2022-12-29T15:48:18;8.20;99.90
52675;DHT22;38569;52.722;6.440;2022-12-29T15:50:44;8.20;99.90
52675;DHT22;38569;52.722;6.440;2022-12-29T15:53:23;8.20;99.90
52675;DHT22;38569;52.722;6.440;2022-12-29T15:56:06;8.20;99.90
52675;DHT22;38569;52.722;6.440;2022-12-29T15:58:41;8.20;99.90
52675;DHT22;38569;52.722;6.440;2022-12-29T16:03:46;8.10;99.90
52675;DHT22;38569;52.722;6.440;2022-12-29T16:09:02;8.00;99.90
52675;DHT22;38569;52.722;6.440;2022-12-29T16:14:00;7.90;99.90
52675;DHT22;38569;52.722;6.440;2022-12-29T16:16:32;7.90;99.90
52675;DHT22;38569;52.722;6.440;2022-12-29T16:19:03;7.90;99.90
52675;DHT22;38569;52.722;6.440;2022-12-29T16:21:34;7.90;99.90
52675;DHT22;38569;52.722;6.440;2022-12-29T16:24:06;7.90;99.90
52675;DHT22;38569;52.722;6.440;2022-12-29T16:26:34;7.90;99.90
52675;DHT22;38569;52.722;6.440;2022-12-29T16:29:01;7.90;99.90
52675;DHT22;38569;52.722;6.440;2022-12-29T16:31:51;7.90;99.90
52675;DHT22;38569;52.722;6.440;2022-12-29T16:37:01;7.90;99.90
52675;DHT22;38569;52.722;6.440;2022-12-29T16:41:54;8.00;99.90
52675;DHT22;38569;52.722;6.440;2022-12-29T16:49:34;8.10;99.90
52675;DHT22;38569;52.722;6.440;2022-12-29T16:52:01;8.20;99.90
52675;DHT22;38569;52.722;6.440;2022-12-29T16:54:36;8.10;99.90
52675;DHT22;38569;52.722;6.440;2022-12-29T16:57:03;8.10;99.90
52675;DHT22;38569;52.722;6.440;2022-12-29T16:59:38;8.10;99.90
52675;DHT22;38569;52.722;6.440;2022-12-29T17:02:16;8.20;99.90
52675;DHT22;38569;52.722;6.440;2022-12-29T17:04:44;8.30;99.90
52675;DHT22;38569;52.722;6.440;2022-12-29T17:07:22;8.30;99.90
52675;DHT22;38569;52.722;6.440;2022-12-29T17:09:48;8.40;99.90
52675;DHT22;38569;52.722;6.440;2022-12-29T17:12:18;8.40;99.90
52675;DHT22;38569;52.722;6.440;2022-12-29T17:14:47;8.40;99.90
52675;DHT22;38569;52.722;6.440;2022-12-29T17:17:19;8.50;99.90
52675;DHT22;38569;52.722;6.440;2022-12-29T17:19:51;8.50;99.90
52675;DHT22;38569;52.722;6.440;2022-12-29T17:22:23;8.50;99.90
52675;DHT22;38569;52.722;6.440;2022-12-29T17:24:54;8.50;99.90
52675;DHT22;38569;52.722;6.440;2022-12-29T17:27:27;8.40;99.90
52675;DHT22;38569;52.722;6.440;2022-12-29T17:29:57;8.40;99.90
52675;DHT22;38569;52.722;6.440;2022-12-29T17:32:24;8.40;99.90
52675;DHT22;38569;52.722;6.440;2022-12-29T17:34:49;8.40;99.90
52675;DHT22;38569;52.722;6.440;2022-12-29T17:37:28;8.30;99.90
52675;DHT22;38569;52.722;6.440;2022-12-29T17:39:54;8.30;99.90
52675;DHT22;38569;52.722;6.440;2022-12-29T17:42:20;8.30;99.90
52675;DHT22;38569;52.722;6.440;2022-12-29T17:44:45;8.30;99.90
52675;DHT22;38569;52.722;6.440;2022-12-29T17:47:11;8.30;99.90
52675;DHT22;38569;52.722;6.440;2022-12-29T17:49:40;8.30;99.90
52675;DHT22;38569;52.722;6.440;2022-12-29T17:52:14;8.20;99.90
52675;DHT22;38569;52.722;6.440;2022-12-29T17:54:50;8.20;99.90
52675;DHT22;38569;52.722;6.440;2022-12-29T17:57:17;8.20;99.90
52675;DHT22;38569;52.722;6.440;2022-12-29T17:59:43;8.20;99.90
52675;DHT22;38569;52.722;6.440;2022-12-29T18:02:30;8.20;99.90
52675;DHT22;38569;52.722;6.440;2022-12-29T18:04:57;8.30;99.90
52675;DHT22;38569;52.722;6.440;2022-12-29T18:07:28;8.30;99.90
52675;DHT22;38569;52.722;6.440;2022-12-29T18:09:55;8.30;99.90
52675;DHT22;38569;52.722;6.440;2022-12-29T18:12:40;8.30;99.90
52675;DHT22;38569;52.722;6.440;2022-12-29T18:17:44;8.30;99.90
52675;DHT22;38569;52.722;6.440;2022-12-29T18:20:10;8.30;99.90
52675;DHT22;38569;52.722;6.440;2022-12-29T18:22:36;8.40;99.90
52675;DHT22;38569;52.722;6.440;2022-12-29T18:25:01;8.40;99.90
52675;DHT22;38569;52.722;6.440;2022-12-29T18:27:27;8.40;99.90